world map with PNH marked

PNH - Airport

This information may not be accurate or current and is not valid for navigation or flight planning. No warranty of fitness for any purpose is made or implied.

flag of Cambodia

Donate via PayPal

Additional information is available on the NEW Great Circle Mapper

Location
City:  Phnom Penh, Phnom Penh, Cambodia
Name:Pochentong International Airport
ICAO / IATA:VDPP / PNH

Details
Type:Airport (Aerodrome, Airfield)
Use:Public/Civil, Military
Latitude:11°32'48"N (11.546556)
Longitude:104°50'39"E (104.844139)
Datum:WGS 1984
Elevation:40 ft (12 m)
Runways:1
Longest:9843 × 144 ft (3000 × 44 m)

Time
Timezone:UTC+7 (DST+9)
Local Time:

Weather
METAR:VDPP  221800Z 08011KT 9000 FEW017 27/18 Q1012
TAF:VDPP  221700Z 2218/2312 02007KT 9999 FEW017= TAF VDSR 221700Z 2218/2312 32007KT 9999 FEW017

Related Locations
Nearby:
Farthest:SPHU: 12444 mi / 20027 km
Huancayo, JUN, PE

Find:

   beyond  
but within

Other Information
Maps:
Sources:

  


 


Great Circle Mapper   Great Circle Mapper
Great Circle Mapper FAQ   Great Circle Mapper FAQ
  Karl's Home Page
KLSē   KLSē Home
   GC on Facebook
Airlines of the World   Airlines of the World
Donate via PayPal


Copyright © 2004-2019, Karl L. Swartz. All rights reserved.
All trademarks mentioned herein belong to their respective owners.

Please see credits for attribution and copyright information.

Karl Swartz <karl@kls2.com>
  Powered by FreeBSD
Valid HTML 4.01!
Labeled with ICRA
hCard Microformat
Geo Microformat